Main page
METAR-TAF:

METAR-TAF

Airports :

Malmö Airport

Malmö, Sweden

latitude: 55-33N, longitude: 013-22E, elevation: 106 m

Current weather observation

The report was made 27 minutes ago, at 13:50 UTC
Wind 10 kt from the West
Temperature 6°C
Humidity 93%
Pressure 1015 hPa
Visibility 10 km or more
Broken clouds at a height of 600 ft
Overcast at a height of 1200 ft

METAR: ESMS 241350Z 26010KT 9999 BKN006 OVC012 06/05 Q1015 R17/29//95

Time: 15:17 (14:17 UTC)

Forecast

The report was made 3 hours and 4 minutes ago, at 11:13 UTC
Forecast valid from 24 at 12 UTC to 25 at 12 UTC
Wind 8 kt from the West
Visibility: 2000 m
Broken clouds at a height of 300 ft
light rain, drizzle, mist
Temporary
from 24 at 12 UTC to 24 at 21 UTC
Visibility: 5000 m
Broken clouds at a height of 500 ft
Becoming
from 24 at 21 UTC to 24 at 23 UTC
Visibility: 5000 m
Broken clouds at a height of 2000 ft

TAF: ESMS 241113Z 2412/2512 26008KT 2000 -RADZ BR BKN003 TEMPO 2412/2421 5000 BKN005 BECMG 2421/2423 5000 NSW BKN020

Weather observations and forecasts of more than 4000 airports (METAR and TAF reports).

The available stations are represented by yellow and red dots on the map.

Hover mouse over dot to see the name of the station.

Then click to see weather observations and forecasts.

To change the map : click on the green buttons with a black cross to zoom in, on the green button with a dash to zoom out, or on the green arrows for adjacent maps.


METAR-TAF: